sensor_id;sensor_type;location;lat;lon;timestamp;P1;durP1;ratioP1;P2;durP2;ratioP2
1428;SDS011;708;51.442;7.016;2023-12-20T00:02:04;7.70;;;7.40;;
1428;SDS011;708;51.442;7.016;2023-12-20T00:04:31;7.15;;;6.95;;
1428;SDS011;708;51.442;7.016;2023-12-20T00:06:58;7.13;;;6.93;;
1428;SDS011;708;51.442;7.016;2023-12-20T00:09:24;6.95;;;6.75;;
1428;SDS011;708;51.442;7.016;2023-12-20T00:11:53;7.18;;;6.97;;
1428;SDS011;708;51.442;7.016;2023-12-20T00:14:19;7.47;;;7.18;;
1428;SDS011;708;51.442;7.016;2023-12-20T00:16:46;8.75;;;8.30;;
1428;SDS011;708;51.442;7.016;2023-12-20T00:19:13;6.93;;;6.72;;
1428;SDS011;708;51.442;7.016;2023-12-20T00:21:40;7.53;;;7.32;;
1428;SDS011;708;51.442;7.016;2023-12-20T00:24:07;6.78;;;6.57;;
1428;SDS011;708;51.442;7.016;2023-12-20T00:26:34;6.40;;;6.20;;
1428;SDS011;708;51.442;7.016;2023-12-20T00:29:01;6.80;;;6.50;;
1428;SDS011;708;51.442;7.016;2023-12-20T00:31:27;6.13;;;5.93;;
1428;SDS011;708;51.442;7.016;2023-12-20T00:33:54;7.65;;;7.35;;
1428;SDS011;708;51.442;7.016;2023-12-20T00:36:21;6.85;;;6.55;;
1428;SDS011;708;51.442;7.016;2023-12-20T00:38:48;7.88;;;7.57;;
1428;SDS011;708;51.442;7.016;2023-12-20T00:41:16;7.88;;;7.47;;
1428;SDS011;708;51.442;7.016;2023-12-20T00:43:43;6.63;;;6.43;;
1428;SDS011;708;51.442;7.016;2023-12-20T00:46:11;5.90;;;5.70;;
1428;SDS011;708;51.442;7.016;2023-12-20T00:48:38;6.38;;;6.18;;
1428;SDS011;708;51.442;7.016;2023-12-20T00:51:07;6.72;;;6.53;;
1428;SDS011;708;51.442;7.016;2023-12-20T00:53:34;5.82;;;5.63;;
1428;SDS011;708;51.442;7.016;2023-12-20T00:56:01;6.68;;;6.47;;
1428;SDS011;708;51.442;7.016;2023-12-20T00:58:28;7.47;;;7.15;;
1428;SDS011;708;51.442;7.016;2023-12-20T01:00:55;7.82;;;7.43;;
1428;SDS011;708;51.442;7.016;2023-12-20T01:03:24;7.10;;;6.80;;
1428;SDS011;708;51.442;7.016;2023-12-20T01:05:51;8.18;;;7.80;;
1428;SDS011;708;51.442;7.016;2023-12-20T01:08:18;6.75;;;6.55;;
1428;SDS011;708;51.442;7.016;2023-12-20T01:10:45;11.15;;;10.70;;
1428;SDS011;708;51.442;7.016;2023-12-20T01:13:12;6.35;;;6.15;;
1428;SDS011;708;51.442;7.016;2023-12-20T01:15:39;8.90;;;8.38;;
1428;SDS011;708;51.442;7.016;2023-12-20T01:18:06;5.68;;;5.47;;
1428;SDS011;708;51.442;7.016;2023-12-20T01:20:35;8.73;;;8.13;;
1428;SDS011;708;51.442;7.016;2023-12-20T01:23:01;5.50;;;5.20;;
1428;SDS011;708;51.442;7.016;2023-12-20T01:25:28;6.00;;;5.80;;
1428;SDS011;708;51.442;7.016;2023-12-20T01:27:55;6.90;;;6.45;;
1428;SDS011;708;51.442;7.016;2023-12-20T01:30:22;5.95;;;5.75;;
1428;SDS011;708;51.442;7.016;2023-12-20T01:32:50;6.80;;;6.40;;
1428;SDS011;708;51.442;7.016;2023-12-20T01:35:20;5.70;;;5.50;;
1428;SDS011;708;51.442;7.016;2023-12-20T01:37:48;5.35;;;5.15;;
1428;SDS011;708;51.442;7.016;2023-12-20T01:40:14;5.38;;;5.18;;
1428;SDS011;708;51.442;7.016;2023-12-20T01:42:41;5.82;;;5.63;;
1428;SDS011;708;51.442;7.016;2023-12-20T01:45:08;5.57;;;5.38;;
1428;SDS011;708;51.442;7.016;2023-12-20T01:47:35;5.55;;;5.35;;
1428;SDS011;708;51.442;7.016;2023-12-20T01:50:06;5.80;;;5.60;;
1428;SDS011;708;51.442;7.016;2023-12-20T01:52:34;6.30;;;6.05;;
1428;SDS011;708;51.442;7.016;2023-12-20T01:55:02;7.82;;;7.43;;
1428;SDS011;708;51.442;7.016;2023-12-20T01:57:36;5.55;;;5.35;;
1428;SDS011;708;51.442;7.016;2023-12-20T02:00:03;5.50;;;5.30;;
1428;SDS011;708;51.442;7.016;2023-12-20T02:02:31;5.93;;;5.72;;
1428;SDS011;708;51.442;7.016;2023-12-20T02:04:59;6.00;;;5.80;;
1428;SDS011;708;51.442;7.016;2023-12-20T02:07:36;5.70;;;5.50;;
1428;SDS011;708;51.442;7.016;2023-12-20T02:10:07;5.97;;;5.78;;
1428;SDS011;708;51.442;7.016;2023-12-20T02:12:37;6.15;;;5.90;;
1428;SDS011;708;51.442;7.016;2023-12-20T02:15:07;6.53;;;6.20;;
1428;SDS011;708;51.442;7.016;2023-12-20T02:17:33;7.47;;;7.18;;
1428;SDS011;708;51.442;7.016;2023-12-20T02:20:01;5.10;;;4.90;;
1428;SDS011;708;51.442;7.016;2023-12-20T02:22:29;5.82;;;5.63;;
1428;SDS011;708;51.442;7.016;2023-12-20T02:24:55;5.25;;;5.05;;
1428;SDS011;708;51.442;7.016;2023-12-20T02:27:23;6.35;;;6.15;;
1428;SDS011;708;51.442;7.016;2023-12-20T02:29:50;5.53;;;5.32;;
1428;SDS011;708;51.442;7.016;2023-12-20T02:32:24;6.18;;;5.88;;
1428;SDS011;708;51.442;7.016;2023-12-20T02:34:55;6.78;;;6.50;;
1428;SDS011;708;51.442;7.016;2023-12-20T02:37:22;6.18;;;5.97;;
1428;SDS011;708;51.442;7.016;2023-12-20T02:39:50;6.05;;;5.85;;
1428;SDS011;708;51.442;7.016;2023-12-20T02:42:20;6.05;;;5.85;;
1428;SDS011;708;51.442;7.016;2023-12-20T02:44:54;5.75;;;5.55;;
1428;SDS011;708;51.442;7.016;2023-12-20T02:47:20;5.35;;;5.15;;
1428;SDS011;708;51.442;7.016;2023-12-20T02:49:47;6.15;;;5.75;;
1428;SDS011;708;51.442;7.016;2023-12-20T02:52:28;6.15;;;5.80;;
1428;SDS011;708;51.442;7.016;2023-12-20T02:54:57;6.72;;;6.40;;
1428;SDS011;708;51.442;7.016;2023-12-20T02:57:26;6.97;;;6.53;;
1428;SDS011;708;51.442;7.016;2023-12-20T02:59:53;6.63;;;6.15;;
1428;SDS011;708;51.442;7.016;2023-12-20T03:02:19;5.80;;;5.50;;
1428;SDS011;708;51.442;7.016;2023-12-20T03:04:46;6.15;;;5.95;;
1428;SDS011;708;51.442;7.016;2023-12-20T03:07:19;5.88;;;5.68;;
1428;SDS011;708;51.442;7.016;2023-12-20T03:09:46;5.78;;;5.57;;
1428;SDS011;708;51.442;7.016;2023-12-20T03:12:17;14.93;;;14.13;;
1428;SDS011;708;51.442;7.016;2023-12-20T03:14:47;9.48;;;8.88;;
1428;SDS011;708;51.442;7.016;2023-12-20T03:17:30;6.47;;;6.28;;
1428;SDS011;708;51.442;7.016;2023-12-20T03:19:56;5.50;;;5.25;;
1428;SDS011;708;51.442;7.016;2023-12-20T03:22:23;5.90;;;5.70;;
1428;SDS011;708;51.442;7.016;2023-12-20T03:24:50;6.88;;;6.55;;
1428;SDS011;708;51.442;7.016;2023-12-20T03:27:18;6.30;;;6.10;;
1428;SDS011;708;51.442;7.016;2023-12-20T03:29:47;5.40;;;5.20;;
1428;SDS011;708;51.442;7.016;2023-12-20T03:32:26;6.55;;;6.25;;
1428;SDS011;708;51.442;7.016;2023-12-20T03:34:52;5.78;;;5.57;;
1428;SDS011;708;51.442;7.016;2023-12-20T03:37:19;6.15;;;5.95;;
1428;SDS011;708;51.442;7.016;2023-12-20T03:39:46;6.28;;;6.07;;
1428;SDS011;708;51.442;7.016;2023-12-20T03:42:15;7.93;;;6.68;;
1428;SDS011;708;51.442;7.016;2023-12-20T03:44:44;5.95;;;5.75;;
1428;SDS011;708;51.442;7.016;2023-12-20T03:47:10;6.85;;;6.65;;
1428;SDS011;708;51.442;7.016;2023-12-20T03:49:37;6.35;;;6.15;;
1428;SDS011;708;51.442;7.016;2023-12-20T03:52:04;6.55;;;6.35;;
1428;SDS011;708;51.442;7.016;2023-12-20T03:54:31;6.75;;;6.55;;
1428;SDS011;708;51.442;7.016;2023-12-20T03:56:58;7.60;;;7.30;;
1428;SDS011;708;51.442;7.016;2023-12-20T03:59:24;8.55;;;8.25;;
1428;SDS011;708;51.442;7.016;2023-12-20T04:01:52;7.32;;;7.13;;
1428;SDS011;708;51.442;7.016;2023-12-20T04:04:19;9.00;;;8.70;;
1428;SDS011;708;51.442;7.016;2023-12-20T04:06:46;8.23;;;7.93;;
1428;SDS011;708;51.442;7.016;2023-12-20T04:09:13;7.63;;;7.32;;
1428;SDS011;708;51.442;7.016;2023-12-20T04:11:40;6.90;;;6.70;;
1428;SDS011;708;51.442;7.016;2023-12-20T04:14:06;6.80;;;6.60;;
1428;SDS011;708;51.442;7.016;2023-12-20T04:16:33;6.93;;;6.72;;
1428;SDS011;708;51.442;7.016;2023-12-20T04:19:02;8.82;;;8.52;;
1428;SDS011;708;51.442;7.016;2023-12-20T04:21:29;8.77;;;8.38;;
1428;SDS011;708;51.442;7.016;2023-12-20T04:23:56;8.48;;;8.18;;
1428;SDS011;708;51.442;7.016;2023-12-20T04:26:22;9.25;;;8.85;;
1428;SDS011;708;51.442;7.016;2023-12-20T04:28:49;7.70;;;7.43;;
1428;SDS011;708;51.442;7.016;2023-12-20T04:31:16;8.38;;;8.07;;
1428;SDS011;708;51.442;7.016;2023-12-20T04:33:43;7.95;;;7.65;;
1428;SDS011;708;51.442;7.016;2023-12-20T04:36:12;7.78;;;7.47;;
1428;SDS011;708;51.442;7.016;2023-12-20T04:38:39;10.50;;;10.00;;
1428;SDS011;708;51.442;7.016;2023-12-20T04:41:06;7.60;;;7.30;;
1428;SDS011;708;51.442;7.016;2023-12-20T04:43:32;8.52;;;8.20;;
1428;SDS011;708;51.442;7.016;2023-12-20T04:46:02;9.98;;;9.48;;
1428;SDS011;708;51.442;7.016;2023-12-20T04:48:29;9.13;;;8.82;;
1428;SDS011;708;51.442;7.016;2023-12-20T04:50:56;9.27;;;8.98;;
1428;SDS011;708;51.442;7.016;2023-12-20T04:53:24;12.90;;;12.25;;
1428;SDS011;708;51.442;7.016;2023-12-20T04:55:51;11.32;;;10.82;;
1428;SDS011;708;51.442;7.016;2023-12-20T04:58:18;10.00;;;9.52;;
1428;SDS011;708;51.442;7.016;2023-12-20T05:00:44;8.25;;;7.95;;
1428;SDS011;708;51.442;7.016;2023-12-20T05:03:11;10.02;;;9.52;;
1428;SDS011;708;51.442;7.016;2023-12-20T05:05:38;8.52;;;8.23;;
1428;SDS011;708;51.442;7.016;2023-12-20T05:08:05;10.13;;;9.82;;
1428;SDS011;708;51.442;7.016;2023-12-20T05:10:33;8.95;;;8.65;;
1428;SDS011;708;51.442;7.016;2023-12-20T05:13:01;10.98;;;10.57;;
1428;SDS011;708;51.442;7.016;2023-12-20T05:15:28;8.70;;;8.35;;
1428;SDS011;708;51.442;7.016;2023-12-20T05:17:55;7.60;;;7.38;;
1428;SDS011;708;51.442;7.016;2023-12-20T05:20:22;11.00;;;10.40;;
1428;SDS011;708;51.442;7.016;2023-12-20T05:22:49;9.65;;;9.35;;
1428;SDS011;708;51.442;7.016;2023-12-20T05:25:16;9.00;;;8.70;;
1428;SDS011;708;51.442;7.016;2023-12-20T05:27:44;9.27;;;8.98;;
1428;SDS011;708;51.442;7.016;2023-12-20T05:30:11;10.80;;;10.07;;
1428;SDS011;708;51.442;7.016;2023-12-20T05:32:38;9.35;;;9.05;;
1428;SDS011;708;51.442;7.016;2023-12-20T05:35:05;10.57;;;10.13;;
1428;SDS011;708;51.442;7.016;2023-12-20T05:37:32;9.73;;;9.43;;
1428;SDS011;708;51.442;7.016;2023-12-20T05:39:59;9.65;;;9.35;;
1428;SDS011;708;51.442;7.016;2023-12-20T05:42:29;11.15;;;10.75;;
1428;SDS011;708;51.442;7.016;2023-12-20T05:44:57;9.07;;;8.77;;
1428;SDS011;708;51.442;7.016;2023-12-20T05:47:24;9.35;;;8.95;;
1428;SDS011;708;51.442;7.016;2023-12-20T05:49:50;8.30;;;8.00;;
1428;SDS011;708;51.442;7.016;2023-12-20T05:52:17;9.20;;;8.90;;
1428;SDS011;708;51.442;7.016;2023-12-20T05:54:44;8.60;;;8.30;;
1428;SDS011;708;51.442;7.016;2023-12-20T05:57:11;9.85;;;9.55;;
1428;SDS011;708;51.442;7.016;2023-12-20T05:59:38;9.52;;;9.23;;
1428;SDS011;708;51.442;7.016;2023-12-20T06:02:15;8.30;;;8.00;;
1428;SDS011;708;51.442;7.016;2023-12-20T06:04:43;9.27;;;8.93;;
1428;SDS011;708;51.442;7.016;2023-12-20T06:07:11;8.80;;;8.50;;
1428;SDS011;708;51.442;7.016;2023-12-20T06:09:38;10.27;;;9.88;;
1428;SDS011;708;51.442;7.016;2023-12-20T06:12:05;8.60;;;8.30;;
1428;SDS011;708;51.442;7.016;2023-12-20T06:14:33;8.43;;;8.13;;
1428;SDS011;708;51.442;7.016;2023-12-20T06:17:00;8.07;;;7.78;;
1428;SDS011;708;51.442;7.016;2023-12-20T06:19:28;9.50;;;9.20;;
1428;SDS011;708;51.442;7.016;2023-12-20T06:21:55;14.52;;;13.75;;
1428;SDS011;708;51.442;7.016;2023-12-20T06:24:22;9.52;;;9.23;;
1428;SDS011;708;51.442;7.016;2023-12-20T06:26:52;9.55;;;9.25;;
1428;SDS011;708;51.442;7.016;2023-12-20T06:29:19;9.40;;;9.10;;
1428;SDS011;708;51.442;7.016;2023-12-20T06:31:46;11.38;;;10.88;;
1428;SDS011;708;51.442;7.016;2023-12-20T06:34:13;12.30;;;11.40;;
1428;SDS011;708;51.442;7.016;2023-12-20T06:36:41;10.05;;;9.55;;
1428;SDS011;708;51.442;7.016;2023-12-20T06:39:07;10.15;;;9.75;;
1428;SDS011;708;51.442;7.016;2023-12-20T06:41:34;8.63;;;8.32;;
1428;SDS011;708;51.442;7.016;2023-12-20T06:44:01;9.13;;;8.82;;
1428;SDS011;708;51.442;7.016;2023-12-20T06:46:28;10.90;;;10.38;;
1428;SDS011;708;51.442;7.016;2023-12-20T06:48:55;13.32;;;12.63;;
1428;SDS011;708;51.442;7.016;2023-12-20T06:51:22;11.80;;;11.40;;
1428;SDS011;708;51.442;7.016;2023-12-20T06:53:51;11.45;;;10.80;;
1428;SDS011;708;51.442;7.016;2023-12-20T06:56:18;11.25;;;10.85;;
1428;SDS011;708;51.442;7.016;2023-12-20T06:58:45;11.45;;;11.05;;
1428;SDS011;708;51.442;7.016;2023-12-20T07:01:12;12.68;;;12.18;;
1428;SDS011;708;51.442;7.016;2023-12-20T07:03:39;12.50;;;12.10;;
1428;SDS011;708;51.442;7.016;2023-12-20T07:06:06;11.38;;;10.98;;
1428;SDS011;708;51.442;7.016;2023-12-20T07:08:33;13.93;;;13.40;;
1428;SDS011;708;51.442;7.016;2023-12-20T07:11:02;9.85;;;9.55;;
1428;SDS011;708;51.442;7.016;2023-12-20T07:13:29;10.90;;;10.55;;
1428;SDS011;708;51.442;7.016;2023-12-20T07:15:56;12.25;;;11.55;;
1428;SDS011;708;51.442;7.016;2023-12-20T07:18:23;12.27;;;11.77;;
1428;SDS011;708;51.442;7.016;2023-12-20T07:20:49;11.15;;;10.75;;
1428;SDS011;708;51.442;7.016;2023-12-20T07:23:16;11.82;;;11.43;;
1428;SDS011;708;51.442;7.016;2023-12-20T07:25:44;11.15;;;10.75;;
1428;SDS011;708;51.442;7.016;2023-12-20T07:28:17;11.20;;;10.80;;
1428;SDS011;708;51.442;7.016;2023-12-20T07:30:44;13.13;;;12.65;;
1428;SDS011;708;51.442;7.016;2023-12-20T07:33:11;12.63;;;12.13;;
1428;SDS011;708;51.442;7.016;2023-12-20T07:35:38;12.18;;;11.77;;
1428;SDS011;708;51.442;7.016;2023-12-20T07:38:05;11.40;;;11.00;;
1428;SDS011;708;51.442;7.016;2023-12-20T07:40:32;11.73;;;11.32;;
1428;SDS011;708;51.442;7.016;2023-12-20T07:42:59;13.00;;;12.30;;
1428;SDS011;708;51.442;7.016;2023-12-20T07:45:27;10.88;;;10.48;;
1428;SDS011;708;51.442;7.016;2023-12-20T07:47:53;11.40;;;11.00;;
1428;SDS011;708;51.442;7.016;2023-12-20T07:50:20;13.70;;;12.85;;
1428;SDS011;708;51.442;7.016;2023-12-20T07:52:47;10.20;;;9.80;;
1428;SDS011;708;51.442;7.016;2023-12-20T07:55:14;11.75;;;11.15;;
1428;SDS011;708;51.442;7.016;2023-12-20T07:57:41;10.43;;;9.90;;
1428;SDS011;708;51.442;7.016;2023-12-20T08:00:08;10.35;;;9.95;;
1428;SDS011;708;51.442;7.016;2023-12-20T08:02:37;10.05;;;9.65;;
1428;SDS011;708;51.442;7.016;2023-12-20T08:05:04;10.20;;;9.90;;
1428;SDS011;708;51.442;7.016;2023-12-20T08:07:31;11.25;;;10.75;;
1428;SDS011;708;51.442;7.016;2023-12-20T08:09:58;12.30;;;11.90;;
1428;SDS011;708;51.442;7.016;2023-12-20T08:12:25;9.80;;;9.30;;
1428;SDS011;708;51.442;7.016;2023-12-20T08:14:52;10.20;;;9.90;;
1428;SDS011;708;51.442;7.016;2023-12-20T08:17:19;11.52;;;11.13;;
1428;SDS011;708;51.442;7.016;2023-12-20T08:19:49;9.77;;;9.48;;
1428;SDS011;708;51.442;7.016;2023-12-20T08:22:16;8.95;;;8.65;;
1428;SDS011;708;51.442;7.016;2023-12-20T08:24:43;9.60;;;9.30;;
1428;SDS011;708;51.442;7.016;2023-12-20T08:27:10;15.00;;;11.32;;
1428;SDS011;708;51.442;7.016;2023-12-20T08:29:37;8.65;;;8.35;;
1428;SDS011;708;51.442;7.016;2023-12-20T08:32:04;9.75;;;9.35;;
1428;SDS011;708;51.442;7.016;2023-12-20T08:34:31;8.85;;;8.55;;
1428;SDS011;708;51.442;7.016;2023-12-20T08:36:59;11.93;;;11.48;;
1428;SDS011;708;51.442;7.016;2023-12-20T08:39:26;9.45;;;9.15;;
1428;SDS011;708;51.442;7.016;2023-12-20T08:41:52;9.82;;;9.52;;
1428;SDS011;708;51.442;7.016;2023-12-20T08:44:19;11.35;;;10.85;;
1428;SDS011;708;51.442;7.016;2023-12-20T08:46:47;26.23;;;10.90;;
1428;SDS011;708;51.442;7.016;2023-12-20T08:49:14;10.65;;;10.15;;
1428;SDS011;708;51.442;7.016;2023-12-20T08:51:40;11.40;;;10.98;;
1428;SDS011;708;51.442;7.016;2023-12-20T08:54:09;12.45;;;11.82;;
1428;SDS011;708;51.442;7.016;2023-12-20T08:56:35;13.50;;;12.05;;
1428;SDS011;708;51.442;7.016;2023-12-20T08:59:02;11.02;;;10.63;;
1428;SDS011;708;51.442;7.016;2023-12-20T09:01:29;10.40;;;9.90;;
1428;SDS011;708;51.442;7.016;2023-12-20T09:03:56;9.98;;;9.30;;
1428;SDS011;708;51.442;7.016;2023-12-20T09:06:22;11.07;;;10.48;;
1428;SDS011;708;51.442;7.016;2023-12-20T09:08:49;10.68;;;10.27;;
1428;SDS011;708;51.442;7.016;2023-12-20T09:11:18;9.98;;;9.68;;
1428;SDS011;708;51.442;7.016;2023-12-20T09:13:45;8.23;;;7.93;;
1428;SDS011;708;51.442;7.016;2023-12-20T09:16:12;11.63;;;11.02;;
1428;SDS011;708;51.442;7.016;2023-12-20T09:18:40;9.57;;;9.27;;
1428;SDS011;708;51.442;7.016;2023-12-20T09:21:07;8.65;;;8.23;;
1428;SDS011;708;51.442;7.016;2023-12-20T09:23:34;10.90;;;10.50;;
1428;SDS011;708;51.442;7.016;2023-12-20T09:26:01;10.60;;;10.05;;
1428;SDS011;708;51.442;7.016;2023-12-20T09:28:30;10.90;;;10.50;;
1428;SDS011;708;51.442;7.016;2023-12-20T09:31:01;12.75;;;11.93;;
1428;SDS011;708;51.442;7.016;2023-12-20T09:33:29;9.23;;;8.93;;
1428;SDS011;708;51.442;7.016;2023-12-20T09:35:56;10.57;;;10.07;;
1428;SDS011;708;51.442;7.016;2023-12-20T09:38:23;47.33;;;10.40;;
1428;SDS011;708;51.442;7.016;2023-12-20T09:40:50;9.20;;;8.75;;
1428;SDS011;708;51.442;7.016;2023-12-20T09:43:19;9.32;;;9.02;;
1428;SDS011;708;51.442;7.016;2023-12-20T09:45:49;11.02;;;10.63;;
1428;SDS011;708;51.442;7.016;2023-12-20T09:48:19;9.68;;;9.38;;
1428;SDS011;708;51.442;7.016;2023-12-20T09:50:46;13.93;;;13.20;;
1428;SDS011;708;51.442;7.016;2023-12-20T09:53:15;12.23;;;11.73;;
1428;SDS011;708;51.442;7.016;2023-12-20T09:55:43;11.50;;;11.10;;
1428;SDS011;708;51.442;7.016;2023-12-20T09:58:10;9.80;;;9.50;;
1428;SDS011;708;51.442;7.016;2023-12-20T10:00:37;10.85;;;10.50;;
1428;SDS011;708;51.442;7.016;2023-12-20T10:03:05;9.73;;;9.43;;
1428;SDS011;708;51.442;7.016;2023-12-20T10:05:33;6.93;;;6.70;;
1428;SDS011;708;51.442;7.016;2023-12-20T10:08:00;10.20;;;9.60;;
1428;SDS011;708;51.442;7.016;2023-12-20T10:10:28;11.65;;;11.18;;
1428;SDS011;708;51.442;7.016;2023-12-20T10:13:01;11.30;;;10.70;;
1428;SDS011;708;51.442;7.016;2023-12-20T10:15:29;13.18;;;12.52;;
1428;SDS011;708;51.442;7.016;2023-12-20T10:17:56;11.05;;;10.65;;
1428;SDS011;708;51.442;7.016;2023-12-20T10:20:25;11.98;;;11.48;;
1428;SDS011;708;51.442;7.016;2023-12-20T10:22:53;15.90;;;13.90;;
1428;SDS011;708;51.442;7.016;2023-12-20T10:25:21;10.80;;;10.40;;
1428;SDS011;708;51.442;7.016;2023-12-20T10:27:49;10.48;;;9.98;;
1428;SDS011;708;51.442;7.016;2023-12-20T10:30:16;12.27;;;11.88;;
1428;SDS011;708;51.442;7.016;2023-12-20T10:32:43;20.50;;;14.32;;
1428;SDS011;708;51.442;7.016;2023-12-20T10:35:09;15.43;;;13.88;;
1428;SDS011;708;51.442;7.016;2023-12-20T10:37:37;15.80;;;13.05;;
1428;SDS011;708;51.442;7.016;2023-12-20T10:40:05;14.02;;;12.90;;
1428;SDS011;708;51.442;7.016;2023-12-20T10:42:32;10.95;;;10.55;;
1428;SDS011;708;51.442;7.016;2023-12-20T10:45:01;11.77;;;11.38;;
1428;SDS011;708;51.442;7.016;2023-12-20T10:47:28;12.18;;;11.68;;
1428;SDS011;708;51.442;7.016;2023-12-20T10:49:57;10.98;;;10.57;;
1428;SDS011;708;51.442;7.016;2023-12-20T10:52:26;12.27;;;11.88;;
1428;SDS011;708;51.442;7.016;2023-12-20T10:54:56;11.15;;;10.75;;
1428;SDS011;708;51.442;7.016;2023-12-20T10:57:25;11.02;;;10.63;;
1428;SDS011;708;51.442;7.016;2023-12-20T10:59:54;10.85;;;10.25;;
1428;SDS011;708;51.442;7.016;2023-12-20T11:02:22;10.57;;;9.85;;
1428;SDS011;708;51.442;7.016;2023-12-20T11:04:50;9.52;;;9.23;;
1428;SDS011;708;51.442;7.016;2023-12-20T11:07:23;10.05;;;9.48;;
1428;SDS011;708;51.442;7.016;2023-12-20T11:09:57;9.23;;;8.93;;
1428;SDS011;708;51.442;7.016;2023-12-20T11:12:29;10.73;;;10.23;;
1428;SDS011;708;51.442;7.016;2023-12-20T11:15:04;10.20;;;9.80;;
1428;SDS011;708;51.442;7.016;2023-12-20T11:17:32;11.07;;;10.40;;
1428;SDS011;708;51.442;7.016;2023-12-20T11:20:06;10.85;;;10.45;;
1428;SDS011;708;51.442;7.016;2023-12-20T11:22:35;8.75;;;8.45;;
1428;SDS011;708;51.442;7.016;2023-12-20T11:25:05;11.90;;;11.20;;
1428;SDS011;708;51.442;7.016;2023-12-20T11:27:33;9.70;;;9.40;;
1428;SDS011;708;51.442;7.016;2023-12-20T11:30:00;9.80;;;9.45;;
1428;SDS011;708;51.442;7.016;2023-12-20T11:32:31;11.73;;;11.27;;
1428;SDS011;708;51.442;7.016;2023-12-20T11:35:01;10.70;;;10.30;;
1428;SDS011;708;51.442;7.016;2023-12-20T11:37:43;10.95;;;10.57;;
1428;SDS011;708;51.442;7.016;2023-12-20T11:40:14;9.95;;;9.32;;
1428;SDS011;708;51.442;7.016;2023-12-20T11:42:42;9.55;;;9.25;;
1428;SDS011;708;51.442;7.016;2023-12-20T11:45:10;9.38;;;9.07;;
1428;SDS011;708;51.442;7.016;2023-12-20T11:47:40;10.25;;;9.88;;
1428;SDS011;708;51.442;7.016;2023-12-20T11:50:07;11.07;;;10.50;;
1428;SDS011;708;51.442;7.016;2023-12-20T11:52:34;10.13;;;9.75;;
1428;SDS011;708;51.442;7.016;2023-12-20T11:55:01;11.77;;;11.38;;
1428;SDS011;708;51.442;7.016;2023-12-20T11:57:30;9.45;;;9.15;;
1428;SDS011;708;51.442;7.016;2023-12-20T11:59:57;10.98;;;10.38;;
1428;SDS011;708;51.442;7.016;2023-12-20T12:02:23;8.90;;;8.60;;
1428;SDS011;708;51.442;7.016;2023-12-20T12:04:50;18.75;;;17.17;;
1428;SDS011;708;51.442;7.016;2023-12-20T12:07:17;13.65;;;12.35;;
1428;SDS011;708;51.442;7.016;2023-12-20T12:09:45;9.60;;;9.30;;
1428;SDS011;708;51.442;7.016;2023-12-20T12:12:12;16.40;;;11.13;;
1428;SDS011;708;51.442;7.016;2023-12-20T12:14:41;11.25;;;10.75;;
1428;SDS011;708;51.442;7.016;2023-12-20T12:17:09;9.75;;;9.43;;
1428;SDS011;708;51.442;7.016;2023-12-20T12:19:37;10.98;;;10.57;;
1428;SDS011;708;51.442;7.016;2023-12-20T12:22:04;10.00;;;9.60;;
1428;SDS011;708;51.442;7.016;2023-12-20T12:24:33;9.57;;;9.27;;
1428;SDS011;708;51.442;7.016;2023-12-20T12:27:00;10.00;;;9.70;;
1428;SDS011;708;51.442;7.016;2023-12-20T12:29:27;9.82;;;9.40;;
1428;SDS011;708;51.442;7.016;2023-12-20T12:31:55;10.95;;;10.40;;
1428;SDS011;708;51.442;7.016;2023-12-20T12:34:21;8.63;;;8.32;;
1428;SDS011;708;51.442;7.016;2023-12-20T12:36:51;10.48;;;10.07;;
1428;SDS011;708;51.442;7.016;2023-12-20T12:39:18;9.10;;;8.80;;
1428;SDS011;708;51.442;7.016;2023-12-20T12:41:46;12.13;;;10.88;;
1428;SDS011;708;51.442;7.016;2023-12-20T12:44:13;10.30;;;9.88;;
1428;SDS011;708;51.442;7.016;2023-12-20T12:46:40;9.50;;;9.10;;
1428;SDS011;708;51.442;7.016;2023-12-20T12:49:08;8.10;;;7.80;;
1428;SDS011;708;51.442;7.016;2023-12-20T12:51:35;9.13;;;8.82;;
1428;SDS011;708;51.442;7.016;2023-12-20T12:54:02;7.93;;;7.63;;
1428;SDS011;708;51.442;7.016;2023-12-20T12:56:29;9.30;;;9.00;;
1428;SDS011;708;51.442;7.016;2023-12-20T12:58:56;10.70;;;10.20;;
1428;SDS011;708;51.442;7.016;2023-12-20T13:01:22;10.60;;;10.13;;
1428;SDS011;708;51.442;7.016;2023-12-20T13:03:49;9.60;;;9.30;;
1428;SDS011;708;51.442;7.016;2023-12-20T13:06:17;8.57;;;8.27;;
1428;SDS011;708;51.442;7.016;2023-12-20T13:08:44;9.07;;;8.77;;
1428;SDS011;708;51.442;7.016;2023-12-20T13:11:11;10.05;;;9.65;;
1428;SDS011;708;51.442;7.016;2023-12-20T13:13:38;9.13;;;8.82;;
1428;SDS011;708;51.442;7.016;2023-12-20T13:16:05;10.13;;;9.82;;
1428;SDS011;708;51.442;7.016;2023-12-20T13:18:32;8.05;;;7.75;;
1428;SDS011;708;51.442;7.016;2023-12-20T13:20:59;10.65;;;10.25;;
1428;SDS011;708;51.442;7.016;2023-12-20T13:23:27;9.00;;;8.70;;
1428;SDS011;708;51.442;7.016;2023-12-20T13:25:54;8.80;;;8.50;;
1428;SDS011;708;51.442;7.016;2023-12-20T13:28:21;9.80;;;9.30;;
1428;SDS011;708;51.442;7.016;2023-12-20T13:30:47;8.68;;;8.38;;
1428;SDS011;708;51.442;7.016;2023-12-20T13:33:14;8.88;;;8.57;;
1428;SDS011;708;51.442;7.016;2023-12-20T13:35:41;10.65;;;10.25;;
1428;SDS011;708;51.442;7.016;2023-12-20T13:38:08;9.15;;;8.85;;
1428;SDS011;708;51.442;7.016;2023-12-20T13:40:36;10.57;;;10.15;;
1428;SDS011;708;51.442;7.016;2023-12-20T13:43:03;10.50;;;10.10;;
1428;SDS011;708;51.442;7.016;2023-12-20T13:45:31;10.10;;;9.80;;
1428;SDS011;708;51.442;7.016;2023-12-20T13:47:58;9.48;;;9.07;;
1428;SDS011;708;51.442;7.016;2023-12-20T13:50:32;10.20;;;9.80;;
1428;SDS011;708;51.442;7.016;2023-12-20T13:52:59;10.73;;;10.13;;
1428;SDS011;708;51.442;7.016;2023-12-20T13:55:26;10.13;;;9.82;;
1428;SDS011;708;51.442;7.016;2023-12-20T13:57:54;11.10;;;10.70;;
1428;SDS011;708;51.442;7.016;2023-12-20T14:00:21;9.68;;;9.38;;
1428;SDS011;708;51.442;7.016;2023-12-20T14:02:48;11.00;;;10.55;;
1428;SDS011;708;51.442;7.016;2023-12-20T14:05:17;9.13;;;8.82;;
1428;SDS011;708;51.442;7.016;2023-12-20T14:07:44;10.65;;;10.25;;
1428;SDS011;708;51.442;7.016;2023-12-20T14:10:11;11.30;;;10.27;;
1428;SDS011;708;51.442;7.016;2023-12-20T14:12:39;10.85;;;10.40;;
1428;SDS011;708;51.442;7.016;2023-12-20T14:15:07;9.75;;;9.45;;
1428;SDS011;708;51.442;7.016;2023-12-20T14:17:36;10.48;;;10.07;;
1428;SDS011;708;51.442;7.016;2023-12-20T14:20:03;11.65;;;11.25;;
1428;SDS011;708;51.442;7.016;2023-12-20T14:22:31;14.63;;;13.95;;
1428;SDS011;708;51.442;7.016;2023-12-20T14:24:58;11.13;;;10.73;;
1428;SDS011;708;51.442;7.016;2023-12-20T14:27:24;10.23;;;9.93;;
1428;SDS011;708;51.442;7.016;2023-12-20T14:29:52;15.27;;;14.70;;
1428;SDS011;708;51.442;7.016;2023-12-20T14:32:21;10.70;;;10.30;;
1428;SDS011;708;51.442;7.016;2023-12-20T14:34:48;10.35;;;9.95;;
1428;SDS011;708;51.442;7.016;2023-12-20T14:37:14;9.88;;;9.32;;
1428;SDS011;708;51.442;7.016;2023-12-20T14:39:42;8.98;;;8.68;;
1428;SDS011;708;51.442;7.016;2023-12-20T14:42:09;8.77;;;8.48;;
1428;SDS011;708;51.442;7.016;2023-12-20T14:44:38;8.45;;;8.15;;
1428;SDS011;708;51.442;7.016;2023-12-20T14:47:05;9.77;;;9.38;;
1428;SDS011;708;51.442;7.016;2023-12-20T14:49:33;10.98;;;10.43;;
1428;SDS011;708;51.442;7.016;2023-12-20T14:52:00;8.75;;;8.35;;
1428;SDS011;708;51.442;7.016;2023-12-20T14:54:27;11.02;;;10.32;;
1428;SDS011;708;51.442;7.016;2023-12-20T14:56:54;11.63;;;11.00;;
1428;SDS011;708;51.442;7.016;2023-12-20T14:59:21;9.68;;;9.38;;
1428;SDS011;708;51.442;7.016;2023-12-20T15:01:50;11.70;;;11.20;;
1428;SDS011;708;51.442;7.016;2023-12-20T15:04:17;8.05;;;7.75;;
1428;SDS011;708;51.442;7.016;2023-12-20T15:06:52;9.77;;;9.40;;
1428;SDS011;708;51.442;7.016;2023-12-20T15:09:18;10.93;;;10.52;;
1428;SDS011;708;51.442;7.016;2023-12-20T15:11:45;10.02;;;9.60;;
1428;SDS011;708;51.442;7.016;2023-12-20T15:14:12;8.75;;;8.45;;
1428;SDS011;708;51.442;7.016;2023-12-20T15:16:43;9.45;;;9.05;;
1428;SDS011;708;51.442;7.016;2023-12-20T15:19:09;9.20;;;8.80;;
1428;SDS011;708;51.442;7.016;2023-12-20T15:21:36;7.28;;;7.05;;
1428;SDS011;708;51.442;7.016;2023-12-20T15:24:08;8.60;;;8.30;;